createdAt,value
2017-10-19T00:00:43.338Z,11.80
2017-10-19T00:03:11.181Z,12.40
2017-10-19T00:05:38.617Z,12.30
2017-10-19T00:08:06.057Z,11.80
2017-10-19T00:10:33.506Z,11.53
2017-10-19T00:13:00.936Z,13.47
2017-10-19T00:15:28.481Z,11.80
2017-10-19T00:17:56.783Z,12.60
2017-10-19T00:20:24.225Z,11.00
2017-10-19T00:22:51.655Z,11.97
2017-10-19T00:25:19.517Z,12.87
2017-10-19T00:27:47.342Z,12.63
2017-10-19T00:30:14.774Z,11.57
2017-10-19T00:32:42.214Z,11.47
2017-10-19T00:35:09.650Z,12.97
2017-10-19T00:37:37.477Z,12.83
2017-10-19T00:40:05.017Z,11.37
2017-10-19T00:42:32.459Z,11.60
2017-10-19T00:44:59.897Z,12.27
2017-10-19T00:47:27.374Z,12.63
2017-10-19T00:49:54.804Z,11.53
2017-10-19T00:52:22.238Z,12.93
2017-10-19T00:54:50.100Z,11.87
2017-10-19T00:57:17.929Z,11.07
2017-10-19T00:59:45.364Z,10.97
2017-10-19T01:02:12.798Z,11.83
2017-10-19T01:04:40.252Z,10.97
2017-10-19T01:07:08.750Z,12.47
2017-10-19T01:09:36.181Z,12.00
2017-10-19T01:12:03.610Z,12.43
2017-10-19T01:14:31.058Z,15.23
2017-10-19T01:16:58.624Z,11.17
2017-10-19T01:19:26.450Z,11.07
2017-10-19T01:21:53.893Z,11.43
2017-10-19T01:24:21.333Z,11.43
2017-10-19T01:26:50.444Z,10.70
2017-10-19T01:29:17.876Z,11.70
2017-10-19T01:31:45.309Z,10.57
2017-10-19T01:34:13.329Z,11.60
2017-10-19T01:36:40.761Z,9.70
2017-10-19T01:39:08.181Z,10.27
2017-10-19T01:41:35.637Z,11.23
2017-10-19T01:44:03.068Z,10.43
2017-10-19T01:46:30.501Z,10.73
2017-10-19T01:48:57.928Z,9.60
2017-10-19T01:51:25.361Z,10.90
2017-10-19T01:53:53.180Z,12.70
2017-10-19T01:56:20.619Z,9.93
2017-10-19T01:58:48.044Z,9.53
2017-10-19T02:01:16.188Z,9.90
2017-10-19T02:03:43.616Z,10.83
2017-10-19T02:06:11.045Z,10.00
2017-10-19T02:08:38.478Z,11.80
2017-10-19T02:11:06.600Z,11.23
2017-10-19T02:13:34.020Z,10.53
2017-10-19T02:16:01.450Z,10.50
2017-10-19T02:18:29.316Z,9.73
2017-10-19T02:20:57.141Z,10.57
2017-10-19T02:23:24.586Z,10.10
2017-10-19T02:25:52.054Z,10.10
2017-10-19T02:28:19.489Z,11.50
2017-10-19T02:30:46.921Z,13.10
2017-10-19T02:33:14.392Z,10.70
2017-10-19T02:35:41.809Z,9.80
2017-10-19T02:38:09.641Z,10.90
2017-10-19T02:40:37.097Z,12.70
2017-10-19T02:43:04.526Z,10.03
2017-10-19T02:45:31.961Z,10.40
2017-10-19T02:47:59.419Z,10.33
2017-10-19T02:50:26.849Z,10.67
2017-10-19T02:52:54.673Z,9.43
2017-10-19T02:55:22.114Z,10.10
2017-10-19T02:57:49.552Z,10.80
2017-10-19T03:00:17.017Z,9.43
2017-10-19T03:02:44.453Z,10.10
2017-10-19T03:05:11.891Z,10.20
2017-10-19T03:07:40.105Z,10.17
2017-10-19T03:10:07.545Z,11.27
2017-10-19T03:12:34.977Z,9.90
2017-10-19T03:15:02.422Z,10.37
2017-10-19T03:17:30.257Z,9.80
2017-10-19T03:19:57.721Z,10.70
2017-10-19T03:22:25.151Z,11.13
2017-10-19T03:24:52.586Z,11.20
2017-10-19T03:27:20.021Z,10.20
2017-10-19T03:29:47.477Z,14.83
2017-10-19T03:32:14.910Z,15.40
2017-10-19T03:34:42.741Z,11.30
2017-10-19T03:37:10.385Z,11.03
2017-10-19T03:39:37.827Z,11.40
2017-10-19T03:42:05.263Z,10.73
2017-10-19T03:44:32.689Z,10.57
2017-10-19T03:47:00.517Z,13.63
2017-10-19T03:49:28.275Z,10.60
2017-10-19T03:51:55.706Z,11.60
2017-10-19T03:54:23.136Z,10.13
2017-10-19T03:56:50.990Z,10.83
2017-10-19T03:59:18.825Z,10.47
2017-10-19T04:01:46.258Z,10.33
2017-10-19T04:04:13.885Z,10.50
2017-10-19T04:06:41.741Z,11.17
2017-10-19T04:09:09.590Z,11.50
2017-10-19T04:11:37.205Z,19.03
2017-10-19T04:14:04.662Z,12.30
2017-10-19T04:16:32.118Z,15.77
2017-10-19T04:18:59.603Z,9.70
2017-10-19T04:21:27.053Z,10.70
2017-10-19T04:23:54.510Z,10.07
2017-10-19T04:26:21.981Z,11.10
2017-10-19T04:28:49.420Z,10.40
2017-10-19T04:31:16.867Z,10.10
2017-10-19T04:33:44.506Z,11.07
2017-10-19T04:36:11.937Z,10.60
2017-10-19T04:38:39.378Z,10.70
2017-10-19T04:41:07.227Z,10.53
2017-10-19T04:43:35.064Z,10.07
2017-10-19T04:46:02.495Z,11.40
2017-10-19T04:48:29.941Z,10.80
2017-10-19T04:50:57.381Z,11.37
2017-10-19T04:53:24.820Z,10.90
2017-10-19T04:55:52.674Z,11.30
2017-10-19T04:58:20.504Z,11.70
2017-10-19T05:00:47.945Z,12.10
2017-10-19T05:03:15.430Z,10.60
2017-10-19T05:05:42.867Z,10.50
2017-10-19T05:08:10.290Z,11.63
2017-10-19T05:10:37.973Z,11.70
2017-10-19T05:13:05.406Z,10.63
2017-10-19T05:15:32.855Z,13.00
2017-10-19T05:18:00.311Z,11.80
2017-10-19T05:20:27.751Z,12.87
2017-10-19T05:22:55.578Z,12.43
2017-10-19T05:25:23.017Z,11.87
2017-10-19T05:27:51.442Z,12.97
2017-10-19T05:30:19.306Z,12.70
2017-10-19T05:32:47.134Z,12.27
2017-10-19T05:35:14.572Z,13.20
2017-10-19T05:37:42.233Z,12.77
2017-10-19T05:40:10.514Z,13.03
2017-10-19T05:42:37.939Z,13.17
2017-10-19T05:45:05.406Z,11.80
2017-10-19T05:47:32.837Z,13.70
2017-10-19T05:50:00.266Z,13.10
2017-10-19T05:52:27.881Z,12.90
2017-10-19T05:54:55.314Z,13.80
2017-10-19T05:57:22.749Z,13.47
2017-10-19T05:59:50.617Z,11.70
2017-10-19T06:02:18.070Z,14.13
2017-10-19T06:04:45.898Z,13.70
2017-10-19T06:07:13.358Z,13.33
2017-10-19T06:09:40.795Z,13.43
2017-10-19T06:12:08.234Z,13.23
2017-10-19T06:14:35.782Z,12.20
2017-10-19T06:17:03.224Z,13.13
2017-10-19T06:19:30.664Z,13.60
2017-10-19T06:21:58.783Z,13.37
2017-10-19T06:24:26.225Z,14.37
2017-10-19T06:26:53.656Z,14.20
2017-10-19T06:29:21.121Z,13.77
2017-10-19T06:31:48.561Z,12.57
2017-10-19T06:34:17.286Z,13.13
2017-10-19T06:36:44.713Z,13.60
2017-10-19T06:39:12.145Z,13.50
2017-10-19T06:41:39.996Z,13.10
2017-10-19T06:44:07.437Z,12.77
2017-10-19T06:46:34.862Z,14.73
2017-10-19T06:49:02.342Z,14.03
2017-10-19T06:51:29.774Z,13.57
2017-10-19T06:53:57.221Z,14.40
2017-10-19T06:56:24.661Z,13.40
2017-10-19T06:58:52.090Z,15.13
2017-10-19T07:01:19.913Z,15.37
2017-10-19T07:03:47.769Z,16.87
2017-10-19T07:06:15.199Z,16.13
2017-10-19T07:08:42.629Z,15.83
2017-10-19T07:11:10.470Z,16.40
2017-10-19T07:13:37.899Z,17.70
2017-10-19T07:16:05.330Z,16.90
2017-10-19T07:18:32.764Z,16.57
2017-10-19T07:21:00.606Z,18.53
2017-10-19T07:23:28.088Z,18.37
2017-10-19T07:25:55.909Z,18.93
2017-10-19T07:28:23.349Z,19.30
2017-10-19T07:30:51.003Z,18.30
2017-10-19T07:33:18.435Z,16.83
2017-10-19T07:35:45.864Z,17.80
2017-10-19T07:38:13.978Z,18.40
2017-10-19T07:40:41.424Z,17.33
2017-10-19T07:43:08.846Z,15.83
2017-10-19T07:45:36.711Z,17.47
2017-10-19T07:48:04.539Z,15.60
2017-10-19T07:50:31.974Z,16.40
2017-10-19T07:53:00.259Z,16.67
2017-10-19T07:55:27.690Z,15.90
2017-10-19T07:57:55.127Z,16.73
2017-10-19T08:00:22.939Z,15.83
2017-10-19T08:02:50.376Z,16.63
2017-10-19T08:05:17.814Z,17.70
2017-10-19T08:07:45.274Z,15.73
2017-10-19T08:10:12.714Z,17.40
2017-10-19T08:12:40.152Z,16.40
2017-10-19T08:15:08.015Z,17.27
2017-10-19T08:17:35.842Z,16.37
2017-10-19T08:20:03.278Z,16.47
2017-10-19T08:22:30.719Z,17.27
2017-10-19T08:24:58.150Z,18.67
2017-10-19T08:27:25.850Z,15.73
2017-10-19T08:29:53.295Z,17.40
2017-10-19T08:32:20.726Z,18.57
2017-10-19T08:34:48.186Z,17.20
2017-10-19T08:37:15.610Z,18.07
2017-10-19T08:39:43.437Z,17.57
2017-10-19T08:42:10.890Z,18.03
2017-10-19T08:44:38.330Z,19.17
2017-10-19T08:47:05.769Z,20.40
2017-10-19T08:49:33.522Z,19.43
2017-10-19T08:52:00.966Z,18.20
2017-10-19T08:54:28.798Z,18.80
2017-10-19T08:56:56.258Z,20.00
2017-10-19T08:59:23.690Z,21.67
2017-10-19T09:01:51.133Z,20.00
2017-10-19T09:04:18.582Z,20.20
2017-10-19T09:06:46.018Z,20.73
2017-10-19T09:09:13.494Z,21.03
2017-10-19T09:11:40.942Z,21.13
2017-10-19T09:14:08.372Z,22.23
2017-10-19T09:16:37.102Z,22.20
2017-10-19T09:19:04.541Z,20.63
2017-10-19T09:21:31.978Z,22.70
2017-10-19T09:23:59.666Z,21.60
2017-10-19T09:26:27.111Z,23.23
2017-10-19T09:28:54.548Z,21.87
2017-10-19T09:31:22.243Z,21.30
2017-10-19T09:33:49.679Z,22.20
2017-10-19T09:36:17.113Z,23.27
2017-10-19T09:38:44.957Z,25.30
2017-10-19T09:41:12.926Z,22.40
2017-10-19T09:43:40.756Z,25.77
2017-10-19T09:46:08.227Z,24.10
2017-10-19T09:48:35.670Z,23.10
2017-10-19T09:51:03.110Z,22.70
2017-10-19T09:53:48.338Z,23.33
2017-10-19T09:56:16.186Z,23.13
2017-10-19T09:58:43.663Z,25.53
2017-10-19T10:01:11.122Z,24.70
2017-10-19T10:03:38.972Z,23.00
2017-10-19T10:06:06.851Z,24.70
2017-10-19T10:08:34.697Z,23.83
2017-10-19T10:11:02.527Z,26.90
2017-10-19T10:13:29.966Z,27.03
2017-10-19T10:15:57.442Z,24.33
2017-10-19T10:18:24.888Z,26.10
2017-10-19T10:20:52.538Z,25.77
2017-10-19T10:23:19.980Z,27.57
2017-10-19T10:25:47.421Z,26.60
2017-10-19T10:28:14.890Z,27.70
2017-10-19T10:30:42.322Z,26.43
2017-10-19T10:33:09.760Z,27.90
2017-10-19T10:35:37.890Z,27.63
2017-10-19T10:38:05.327Z,28.00
2017-10-19T10:40:32.757Z,26.37
2017-10-19T10:43:00.189Z,27.33
2017-10-19T10:45:28.032Z,26.13
2017-10-19T10:47:55.489Z,27.50
2017-10-19T10:50:22.928Z,25.80
2017-10-19T10:52:50.413Z,26.97
2017-10-19T10:55:17.874Z,26.30
2017-10-19T10:57:45.710Z,27.60
2017-10-19T11:00:13.138Z,27.13
2017-10-19T11:02:40.583Z,27.70
2017-10-19T11:05:08.015Z,27.10
2017-10-19T11:07:35.838Z,29.50
2017-10-19T11:10:03.313Z,29.77
2017-10-19T11:12:30.759Z,29.80
2017-10-19T11:14:58.198Z,29.17
2017-10-19T11:17:25.637Z,28.70
2017-10-19T11:19:53.083Z,29.07
2017-10-19T11:22:20.778Z,29.57
2017-10-19T11:24:48.214Z,29.30
2017-10-19T11:27:15.645Z,28.77
2017-10-19T11:29:43.425Z,28.60
2017-10-19T11:32:10.867Z,28.90
2017-10-19T11:34:38.382Z,28.27
2017-10-19T11:37:06.226Z,27.20
2017-10-19T11:39:33.670Z,26.37
2017-10-19T11:42:01.106Z,27.90
2017-10-19T11:44:28.566Z,27.20
2017-10-19T11:46:56.004Z,28.87
2017-10-19T11:49:23.429Z,29.27
2017-10-19T11:51:51.270Z,27.50
2017-10-19T11:54:18.706Z,27.60
2017-10-19T11:56:46.143Z,28.03
2017-10-19T11:59:13.583Z,28.00
2017-10-19T12:01:41.048Z,28.67
2017-10-19T12:04:08.475Z,27.97
2017-10-19T12:06:36.302Z,25.60
2017-10-19T12:09:03.761Z,28.10
2017-10-19T12:11:31.192Z,27.97
2017-10-19T12:13:58.621Z,29.33
2017-10-19T12:16:26.096Z,29.37
2017-10-19T12:18:53.526Z,28.60
2017-10-19T12:21:20.965Z,28.03
2017-10-19T12:23:49.816Z,29.67
2017-10-19T12:26:17.239Z,29.10
2017-10-19T12:28:44.678Z,31.00
2017-10-19T12:31:12.143Z,27.83
2017-10-19T12:33:39.571Z,28.97
2017-10-19T12:36:07.398Z,25.97
2017-10-19T12:38:34.854Z,27.23
2017-10-19T12:41:02.286Z,28.37
2017-10-19T12:43:29.725Z,28.23
2017-10-19T12:45:57.168Z,29.10
2017-10-19T12:48:24.600Z,27.73
2017-10-19T12:50:53.269Z,29.10
2017-10-19T12:53:20.700Z,28.50
2017-10-19T12:55:48.133Z,29.80
2017-10-19T12:58:15.590Z,29.97
2017-10-19T13:00:43.031Z,29.03
2017-10-19T13:03:10.462Z,26.97
2017-10-19T13:05:38.298Z,26.40
2017-10-19T13:08:05.739Z,28.23
2017-10-19T13:10:33.173Z,30.30
2017-10-19T13:13:00.625Z,28.53
2017-10-19T13:15:28.066Z,27.37
2017-10-19T13:17:55.505Z,30.50
2017-10-19T13:20:23.097Z,30.20
2017-10-19T13:22:50.553Z,28.63
2017-10-19T13:25:17.990Z,31.90
2017-10-19T13:27:45.425Z,28.20
2017-10-19T13:30:13.258Z,28.97
2017-10-19T13:32:40.706Z,28.47
2017-10-19T13:35:08.152Z,29.03
2017-10-19T13:37:35.585Z,29.57
2017-10-19T13:40:03.154Z,28.27
2017-10-19T13:42:30.579Z,28.37
2017-10-19T13:44:58.011Z,28.53
2017-10-19T13:47:25.874Z,29.23
2017-10-19T13:49:53.702Z,28.90
2017-10-19T13:52:21.142Z,29.20
2017-10-19T13:54:48.661Z,29.10
2017-10-19T13:57:16.491Z,31.30
2017-10-19T13:59:43.923Z,29.40
2017-10-19T14:02:11.586Z,29.73
2017-10-19T14:04:39.023Z,30.33
2017-10-19T14:07:06.478Z,29.47
2017-10-19T14:09:33.917Z,31.60
2017-10-19T14:12:01.354Z,29.70
2017-10-19T14:14:29.209Z,31.33
2017-10-19T14:16:56.709Z,33.90
2017-10-19T14:19:24.137Z,33.17
2017-10-19T14:21:51.988Z,34.80
2017-10-19T14:24:19.822Z,37.10
2017-10-19T14:26:47.264Z,38.40
2017-10-19T14:29:14.730Z,39.87
2017-10-19T14:31:42.172Z,35.90
2017-10-19T14:34:09.597Z,38.50
2017-10-19T14:36:37.066Z,38.03
2017-10-19T14:39:04.498Z,36.30
2017-10-19T14:41:31.935Z,38.87
2017-10-19T14:44:00.062Z,40.13
2017-10-19T14:46:27.502Z,36.20
2017-10-19T14:48:54.933Z,40.30
2017-10-19T14:51:22.625Z,40.33
2017-10-19T14:53:50.059Z,39.10
2017-10-19T14:56:17.496Z,40.57
2017-10-19T14:58:46.014Z,39.80
2017-10-19T15:01:13.450Z,40.50
2017-10-19T15:03:40.882Z,40.40
2017-10-19T15:06:09.610Z,43.00
2017-10-19T15:08:37.142Z,43.03
2017-10-19T15:13:39.650Z,44.37
2017-10-19T15:16:07.081Z,43.90
2017-10-19T15:18:34.632Z,44.80
2017-10-19T15:21:02.457Z,45.13
2017-10-19T15:23:29.891Z,45.47
2017-10-19T15:25:57.554Z,46.57
2017-10-19T15:28:24.990Z,46.77
2017-10-19T15:30:52.426Z,42.70
2017-10-19T15:33:19.901Z,43.10
2017-10-19T15:35:47.329Z,46.47
2017-10-19T15:38:14.761Z,45.73
2017-10-19T15:40:42.589Z,45.73
2017-10-19T15:43:10.034Z,46.97
2017-10-19T15:45:37.466Z,49.50
2017-10-19T15:48:04.949Z,47.20
2017-10-19T15:50:33.338Z,45.57
2017-10-19T15:53:00.766Z,44.43
2017-10-19T15:55:28.197Z,45.20
2017-10-19T15:57:55.661Z,46.70
2017-10-19T16:00:23.102Z,47.23
2017-10-19T16:02:50.930Z,47.40
2017-10-19T16:05:18.398Z,48.00
2017-10-19T16:07:45.833Z,46.20
2017-10-19T16:10:13.278Z,48.70
2017-10-19T16:12:41.753Z,45.27
2017-10-19T16:15:09.203Z,47.53
2017-10-19T16:17:36.638Z,47.57
2017-10-19T16:20:04.081Z,48.03
2017-10-19T16:22:31.518Z,47.33
2017-10-19T16:24:59.345Z,47.27
2017-10-19T16:27:26.909Z,47.90
2017-10-19T16:29:54.348Z,47.67
2017-10-19T16:32:21.783Z,50.57
2017-10-19T16:34:49.407Z,48.40
2017-10-19T16:37:17.237Z,52.60
2017-10-19T16:39:44.671Z,51.33
2017-10-19T16:42:12.133Z,49.07
2017-10-19T16:44:39.572Z,49.50
2017-10-19T16:47:07.003Z,49.77
2017-10-19T16:49:35.001Z,48.33
2017-10-19T16:52:02.438Z,51.47
2017-10-19T16:54:29.869Z,47.87
2017-10-19T16:56:57.733Z,48.47
2017-10-19T16:59:25.565Z,51.03
2017-10-19T17:01:53.005Z,48.67
2017-10-19T17:04:20.449Z,51.93
2017-10-19T17:06:47.882Z,50.70
2017-10-19T17:09:15.345Z,50.53
2017-10-19T17:11:42.789Z,51.70
2017-10-19T17:14:10.217Z,50.33
2017-10-19T17:16:37.709Z,49.27
2017-10-19T17:19:05.145Z,52.03
2017-10-19T17:21:32.984Z,51.07
2017-10-19T17:24:01.326Z,51.90
2017-10-19T17:26:28.760Z,54.30
2017-10-19T17:28:56.189Z,52.03
2017-10-19T17:31:24.031Z,53.23
2017-10-19T17:33:51.586Z,52.60
2017-10-19T17:36:19.040Z,50.63
2017-10-19T17:38:46.482Z,51.80
2017-10-19T17:41:14.234Z,49.67
2017-10-19T17:43:41.674Z,48.57
2017-10-19T17:46:09.105Z,49.97
2017-10-19T17:48:37.517Z,48.93
2017-10-19T17:51:04.954Z,51.43
2017-10-19T17:53:32.387Z,51.37
2017-10-19T17:56:00.254Z,51.00
2017-10-19T17:58:28.079Z,48.43
2017-10-19T18:00:55.514Z,50.77
2017-10-19T18:03:23.174Z,51.07
2017-10-19T18:05:50.611Z,52.73
2017-10-19T18:08:18.039Z,51.73
2017-10-19T18:10:45.904Z,50.53
2017-10-19T18:13:13.730Z,52.63
2017-10-19T18:15:41.169Z,53.63
2017-10-19T18:18:08.808Z,54.50
2017-10-19T18:20:36.250Z,49.00
2017-10-19T18:23:03.690Z,51.97
2017-10-19T18:25:32.732Z,51.77
2017-10-19T18:28:00.159Z,51.70
2017-10-19T18:30:27.595Z,54.17
2017-10-19T18:32:55.538Z,53.77
2017-10-19T18:35:22.974Z,51.50
2017-10-19T18:37:50.430Z,54.87
2017-10-19T18:40:17.883Z,54.07
2017-10-19T18:42:45.314Z,53.67
2017-10-19T18:45:12.751Z,50.90
2017-10-19T18:47:40.455Z,50.83
2017-10-19T18:50:07.894Z,51.27
2017-10-19T18:52:35.329Z,51.90
2017-10-19T18:55:02.802Z,50.17
2017-10-19T18:57:30.243Z,52.90
2017-10-19T18:59:57.677Z,53.40
2017-10-19T19:02:25.122Z,54.10
2017-10-19T19:04:52.554Z,56.40
2017-10-19T19:07:20.000Z,54.20
2017-10-19T19:09:47.467Z,54.30
2017-10-19T19:12:14.905Z,55.43
2017-10-19T19:14:42.335Z,58.60
2017-10-19T19:17:10.090Z,58.30
2017-10-19T19:19:37.506Z,57.40
2017-10-19T19:22:05.342Z,55.67
2017-10-19T19:24:32.774Z,55.70
2017-10-19T19:27:00.215Z,55.07
2017-10-19T19:29:27.658Z,55.07
2017-10-19T19:31:55.089Z,56.20
2017-10-19T19:34:22.923Z,54.23
2017-10-19T19:36:50.377Z,53.23
2017-10-19T19:39:17.819Z,54.87
2017-10-19T19:41:45.265Z,50.27
2017-10-19T19:44:12.928Z,50.87
2017-10-19T19:46:40.369Z,51.63
2017-10-19T19:49:07.806Z,48.53
2017-10-19T19:51:35.263Z,51.43
2017-10-19T19:54:02.699Z,49.40
2017-10-19T19:56:30.530Z,54.20
2017-10-19T19:58:58.272Z,56.93
2017-10-19T20:01:25.704Z,53.37
2017-10-19T20:03:53.133Z,53.63
2017-10-19T20:06:21.251Z,51.93
2017-10-19T20:08:48.691Z,52.40
2017-10-19T20:11:16.134Z,54.83
2017-10-19T20:13:43.595Z,52.90
2017-10-19T20:16:11.035Z,52.80
2017-10-19T20:18:38.700Z,54.90
2017-10-19T20:21:06.138Z,51.73
2017-10-19T20:23:33.970Z,51.47
2017-10-19T20:26:01.430Z,50.67
2017-10-19T20:28:28.869Z,53.00
2017-10-19T20:30:56.311Z,50.33
2017-10-19T20:33:23.999Z,51.27
2017-10-19T20:35:51.429Z,52.23
2017-10-19T20:38:18.876Z,53.13
2017-10-19T20:40:46.527Z,54.80
2017-10-19T20:43:13.998Z,51.80
2017-10-19T20:45:41.443Z,48.80
2017-10-19T20:48:08.882Z,52.67
2017-10-19T20:50:36.341Z,51.37
2017-10-19T20:53:03.782Z,50.77
2017-10-19T20:55:31.222Z,53.67
2017-10-19T20:57:59.122Z,54.73
2017-10-19T21:00:26.542Z,54.00
2017-10-19T21:02:54.373Z,56.77
2017-10-19T21:05:21.821Z,55.83
2017-10-19T21:07:49.258Z,55.30
2017-10-19T21:10:16.742Z,50.33
2017-10-19T21:12:44.186Z,50.77
2017-10-19T21:15:11.617Z,52.63
2017-10-19T21:17:39.398Z,51.97
2017-10-19T21:20:06.846Z,52.13
2017-10-19T21:22:34.289Z,49.50
2017-10-19T21:25:01.747Z,51.00
2017-10-19T21:27:29.186Z,47.87
2017-10-19T21:29:56.626Z,49.57
2017-10-19T21:32:24.841Z,48.20
2017-10-19T21:34:52.281Z,50.53
2017-10-19T21:37:19.721Z,50.90
2017-10-19T21:39:47.210Z,48.80
2017-10-19T21:42:14.645Z,47.17
2017-10-19T21:44:42.107Z,48.63
2017-10-19T21:47:09.578Z,49.63
2017-10-19T21:49:37.022Z,50.30
2017-10-19T21:52:04.471Z,49.77
2017-10-19T21:54:31.909Z,47.67
2017-10-19T21:56:59.368Z,51.33
2017-10-19T21:59:26.796Z,49.13
2017-10-19T22:01:54.634Z,51.73
2017-10-19T22:04:22.109Z,50.40
2017-10-19T22:06:49.938Z,48.60
2017-10-19T22:09:17.382Z,47.40
2017-10-19T22:11:44.835Z,46.07
2017-10-19T22:14:12.461Z,47.20
2017-10-19T22:16:39.893Z,49.47
2017-10-19T22:19:08.018Z,49.63
2017-10-19T22:21:35.451Z,47.00
2017-10-19T22:24:02.895Z,47.60
2017-10-19T22:26:30.358Z,47.70
2017-10-19T22:28:57.799Z,47.30
2017-10-19T22:31:25.630Z,46.87
2017-10-19T22:33:53.099Z,47.50
2017-10-19T22:36:20.537Z,48.93
2017-10-19T22:38:47.978Z,46.80
2017-10-19T22:41:15.430Z,49.00
2017-10-19T22:43:42.867Z,48.00
2017-10-19T22:46:10.313Z,47.07
2017-10-19T22:48:37.783Z,46.43
2017-10-19T22:51:05.227Z,48.30
2017-10-19T22:53:32.662Z,48.20
2017-10-19T22:56:00.109Z,48.57
2017-10-19T22:58:27.989Z,47.90
2017-10-19T23:00:55.429Z,47.00
2017-10-19T23:03:23.262Z,45.80
2017-10-19T23:05:50.897Z,46.87
2017-10-19T23:08:18.348Z,45.10
2017-10-19T23:10:45.792Z,45.77
2017-10-19T23:13:13.370Z,48.77
2017-10-19T23:15:40.826Z,44.17
2017-10-19T23:18:08.275Z,46.07
2017-10-19T23:20:37.252Z,46.33
2017-10-19T23:23:04.691Z,47.57
2017-10-19T23:25:32.120Z,46.20
2017-10-19T23:28:00.074Z,46.73
2017-10-19T23:30:27.513Z,50.10
2017-10-19T23:32:54.957Z,45.40
2017-10-19T23:35:22.410Z,46.57
2017-10-19T23:37:49.845Z,46.10
2017-10-19T23:40:17.370Z,47.13
2017-10-19T23:42:45.249Z,44.17
2017-10-19T23:45:12.692Z,47.13
2017-10-19T23:47:40.523Z,50.10
2017-10-19T23:50:07.971Z,44.13
2017-10-19T23:52:35.414Z,45.70
2017-10-19T23:55:02.871Z,45.87
2017-10-19T23:57:30.312Z,45.50
2017-10-19T23:59:57.746Z,46.90
